This is the latest recevied weather packets stored in our database for station/object IW1CGW-23. If no packets are shown the sender has not sent any weather packets the latest 10 day(s).
| Time | Temp. | Humidity | Pressure | Rain* | Wind** | Luminosity | Snow |
|---|---|---|---|---|---|---|---|
| 1777540729 | 20° C | 71% | 1019.7 hPa | - | - | - | - |
| 1777538374 | 20.56° C | 67% | 1019.6 hPa | - | - | - | - |
| 1777529749 | 18.89° C | 65% | 1018.4 hPa | - | - | - | - |
| 1777528964 | 17.78° C | 66% | 1018.2 hPa | - | - | - | - |
| 1777525833 | 17.78° C | 63% | 1017.6 hPa | - | - | - | - |
| 1777523484 | 18.33° C | 59% | 1017.4 hPa | - | - | - | - |
| 1777522700 | 18.33° C | 57% | 1017.5 hPa | - | - | - | - |
| 1777521917 | 18.33° C | 57% | 1017.5 hPa | - | - | - | - |
| 1777521134 | 18.33° C | 55% | 1017.3 hPa | - | - | - | - |
| 1777520351 | 18.33° C | 56% | 1017.4 hPa | - | - | - | - |
| 1777519568 | 18.33° C | 57% | 1017.2 hPa | - | - | - | - |
| 1777517221 | 17.78° C | 60% | 1017.3 hPa | - | - | - | - |
| 1777515654 | 17.78° C | 64% | 1017 hPa | - | - | - | - |
| 1777514872 | 16.67° C | 66% | 1016.7 hPa | - | - | - | - |
| 1777513308 | 16.67° C | 67% | 1016.5 hPa | - | - | - | - |
| 1777512525 | 16.67° C | 67% | 1016.4 hPa | - | - | - | - |
| 1777511743 | 16.67° C | 66% | 1016.5 hPa | - | - | - | - |
| 1777510178 | 16.67° C | 67% | 1016.7 hPa | - | - | - | - |
| 1777508612 | 17.22° C | 66% | 1016.8 hPa | - | - | - | - |
| 1777507830 | 17.22° C | 65% | 1016.8 hPa | - | - | - | - |
| 1777507048 | 17.22° C | 65% | 1016.7 hPa | - | - | - | - |
| 1777506266 | 17.22° C | 65% | 1016.6 hPa | - | - | - | - |
| 1777504700 | 17.22° C | 65% | 1016.6 hPa | - | - | - | - |
| 1777503918 | 17.22° C | 65% | 1016.6 hPa | - | - | - | - |
| 1777503134 | 17.22° C | 65% | 1016.6 hPa | - | - | - | - |
* Rain since midnight (hover to see other rain measurements)
** Current wind speed in m/s (hover to see current wind gust speed)